Météo des aéroports (METAR) proches de Ticheville

 

LFRG - St Gatien, France
Distance from station: N 52km
Mise à jour: 23/04/2019 15:30
clair
clair
 Wind from NO
Vent: NO 13 km/h
Température: 17°C
Point de rosée: 7°C
Humidité: 52%
Baromètre: 995 hPa
Résumé: clair
Visibility: greater than 10 km
2019/04/23 13:30 LFRG 231330Z AUTO 31007KT 280V350 CAVOK 17/07 Q0995 TEMPO 4000 SHRA BKN050CB
LFRK - Caen/Carpiquet(A, France
Distance from station: ONO 60km
Mise à jour: 23/04/2019 15:30
clair
clair
 Wind from NNE
Vent: NNE 11 km/h
Température: 18°C
Point de rosée: 9°C
Humidité: 56%
Baromètre: 995 hPa
Résumé: clair
Visibility: greater than 10 km
2019/04/23 13:30 LFRK 231330Z AUTO 02006KT 360V060 CAVOK 18/09 Q0995 TEMPO 4000 SHRA BKN050CB
 
LFOH - Le Havre/Octevil, France
Distance from station: NNO 69km
Mise à jour: 23/04/2019 15:30
clair
clair
 Wind from NO
Vent: NO 15 km/h
Température: 16°C
Point de rosée: 8°C
Humidité: 59%
Baromètre: 995 hPa
Résumé: clair
Visibility: greater than 10 km
2019/04/23 13:30 LFOH 231330Z AUTO 31008KT CAVOK 16/08 Q0995 NOSIG
LFOE - Evreux/Fauville, France
Distance from station: E 70km
Mise à jour: 23/04/2019 15:30
clair
clair
 Wind from NNE
Vent: NNE 7 km/h
Température: 19°C
Point de rosée: 9°C
Humidité: 52%
Baromètre: 995 hPa
Résumé: clair
Visibility: greater than 10 km
2019/04/23 13:30 LFOE 231330Z AUTO 02004KT 360V060 CAVOK 19/09 Q0995 NOSIG
 
LFOP - Rouen/Boos (aut), France
Distance from station: NE 83km
Mise à jour: 23/04/2019 15:30
clair
clair
 Wind from varies
Vent: varies 4 km/h
Température: 19°C
Point de rosée: 8°C
Humidité: 49%
Baromètre: 995 hPa
Résumé: clair
Visibility: greater than 10 km
2019/04/23 13:30 LFOP 231330Z AUTO VRB02KT CAVOK 19/08 Q0995 NOSIG
LFRM - Le Mans/Arnage(A, France
Distance from station: S 107km
Mise à jour: 23/04/2019 15:30
clair
clair
 Wind from SSO
Vent: SSO 11 km/h
Température: 20°C
Point de rosée: 10°C
Humidité: 53%
Baromètre: 995 hPa
Résumé: clair
Visibility: greater than 10 km
2019/04/23 13:30 LFRM 231330Z AUTO 21006KT 180V250 CAVOK 20/10 Q0995 TEMPO BKN030TCU SCT050CB